createdAt,value
2019-02-12T00:01:40.248Z,20.10
2019-02-12T00:04:11.552Z,10.60
2019-02-12T00:06:42.829Z,12.90
2019-02-12T00:09:14.118Z,7.27
2019-02-12T00:11:45.413Z,17.43
2019-02-12T00:14:16.665Z,10.00
2019-02-12T00:16:47.861Z,7.40
2019-02-12T00:19:19.112Z,11.27
2019-02-12T00:21:50.431Z,14.13
2019-02-12T00:24:21.691Z,13.07
2019-02-12T00:26:52.994Z,8.20
2019-02-12T00:29:24.236Z,13.63
2019-02-12T00:31:55.582Z,24.13
2019-02-12T00:34:26.866Z,4.40
2019-02-12T00:36:58.143Z,11.53
2019-02-12T00:39:29.391Z,15.10
2019-02-12T00:42:00.723Z,8.47
2019-02-12T00:44:31.983Z,13.97
2019-02-12T00:47:03.234Z,15.47
2019-02-12T00:49:34.448Z,16.33
2019-02-12T00:52:05.737Z,13.70
2019-02-12T00:54:37.065Z,6.73
2019-02-12T00:57:08.430Z,18.47
2019-02-12T00:59:39.742Z,11.20
2019-02-12T01:02:11.095Z,13.10
2019-02-12T01:04:42.383Z,10.97
2019-02-12T01:07:13.659Z,19.07
2019-02-12T01:09:44.960Z,13.07
2019-02-12T01:12:16.327Z,14.47
2019-02-12T01:14:47.611Z,10.57
2019-02-12T01:17:18.907Z,4.13
2019-02-12T01:19:50.234Z,6.97
2019-02-12T01:22:21.468Z,13.60
2019-02-12T01:24:52.716Z,16.07
2019-02-12T01:27:23.902Z,13.50
2019-02-12T01:29:55.317Z,17.80
2019-02-12T01:32:26.545Z,8.10
2019-02-12T01:34:57.813Z,8.03
2019-02-12T01:37:29.085Z,9.83
2019-02-12T01:40:00.309Z,9.73
2019-02-12T01:42:31.584Z,14.30
2019-02-12T01:45:02.856Z,12.27
2019-02-12T01:47:34.160Z,17.33
2019-02-12T01:50:10.336Z,14.07
2019-02-12T01:52:41.712Z,9.13
2019-02-12T01:55:12.954Z,10.17
2019-02-12T01:57:44.294Z,8.63
2019-02-12T02:00:16.707Z,19.20
2019-02-12T02:02:48.021Z,15.83
2019-02-12T02:05:19.265Z,12.67
2019-02-12T02:07:50.460Z,14.30
2019-02-12T02:10:21.611Z,14.87
2019-02-12T02:12:52.951Z,16.57
2019-02-12T02:15:24.234Z,10.73
2019-02-12T02:17:55.511Z,13.90
2019-02-12T02:20:26.921Z,22.57
2019-02-12T02:22:58.139Z,13.70
2019-02-12T02:25:29.406Z,13.43
2019-02-12T02:28:00.625Z,13.40
2019-02-12T02:30:31.913Z,13.03
2019-02-12T02:33:03.240Z,17.70
2019-02-12T02:35:34.523Z,11.10
2019-02-12T02:38:05.701Z,17.30
2019-02-12T02:40:37.055Z,16.73
2019-02-12T02:43:08.326Z,16.20
2019-02-12T02:45:39.615Z,15.13
2019-02-12T02:48:10.877Z,19.50
2019-02-12T02:50:42.173Z,17.73
2019-02-12T02:53:13.424Z,18.20
2019-02-12T02:55:44.711Z,16.37
2019-02-12T02:58:16.032Z,14.30
2019-02-12T03:00:47.322Z,24.73
2019-02-12T03:03:18.658Z,22.67
2019-02-12T03:05:49.908Z,25.30
2019-02-12T03:08:21.218Z,12.60
2019-02-12T03:10:52.467Z,13.67
2019-02-12T03:13:23.789Z,19.13
2019-02-12T03:15:55.180Z,10.80
2019-02-12T03:18:26.466Z,35.73
2019-02-12T03:20:57.701Z,19.10
2019-02-12T03:23:28.988Z,14.63
2019-02-12T03:26:00.260Z,14.13
2019-02-12T03:28:32.528Z,17.97
2019-02-12T03:31:03.826Z,24.70
2019-02-12T03:33:35.110Z,19.73
2019-02-12T03:36:06.415Z,17.47
2019-02-12T03:38:39.736Z,26.83
2019-02-12T03:41:10.762Z,22.90
2019-02-12T03:43:42.037Z,24.70
2019-02-12T03:46:13.395Z,17.47
2019-02-12T03:48:44.676Z,14.23
2019-02-12T03:51:16.037Z,27.47
2019-02-12T03:53:47.297Z,15.80
2019-02-12T03:56:18.548Z,16.77
2019-02-12T03:58:50.243Z,16.63
2019-02-12T04:01:22.057Z,15.47
2019-02-12T04:03:53.926Z,16.80
2019-02-12T04:06:25.232Z,16.00
2019-02-12T04:08:56.553Z,16.97
2019-02-12T04:11:27.926Z,33.67
2019-02-12T04:13:59.263Z,18.73
2019-02-12T04:16:30.648Z,21.00
2019-02-12T04:19:01.905Z,23.10
2019-02-12T04:21:33.205Z,28.37
2019-02-12T04:24:04.642Z,21.23
2019-02-12T04:26:35.900Z,17.07
2019-02-12T04:29:11.423Z,18.90
2019-02-12T04:31:42.684Z,19.17
2019-02-12T04:34:13.998Z,25.17
2019-02-12T04:36:45.216Z,19.90
2019-02-12T04:39:16.491Z,28.07
2019-02-12T04:41:47.798Z,17.53
2019-02-12T04:44:19.136Z,23.90
2019-02-12T04:46:50.437Z,20.07
2019-02-12T04:49:21.746Z,21.97
2019-02-12T04:51:52.987Z,22.03
2019-02-12T04:54:24.346Z,20.40
2019-02-12T04:56:55.537Z,28.27
2019-02-12T04:59:29.204Z,19.00
2019-02-12T05:02:00.496Z,22.00
2019-02-12T05:04:31.747Z,21.50
2019-02-12T05:07:03.034Z,18.57
2019-02-12T05:09:35.508Z,15.17
2019-02-12T05:12:08.365Z,18.80
2019-02-12T05:14:39.575Z,24.20
2019-02-12T05:17:10.751Z,18.63
2019-02-12T05:19:42.035Z,20.10
2019-02-12T05:22:13.334Z,19.07
2019-02-12T05:24:44.572Z,14.13
2019-02-12T05:27:15.883Z,20.40
2019-02-12T05:29:48.137Z,19.47
2019-02-12T05:32:19.437Z,28.83
2019-02-12T05:35:09.690Z,17.83
2019-02-12T05:37:40.990Z,23.70
2019-02-12T05:40:12.340Z,27.60
2019-02-12T05:42:43.623Z,24.43
2019-02-12T05:45:14.932Z,23.40
2019-02-12T05:47:46.162Z,28.33
2019-02-12T05:50:17.498Z,16.70
2019-02-12T05:52:54.265Z,17.80
2019-02-12T05:55:21.655Z,15.10
2019-02-12T05:57:52.938Z,19.27
2019-02-12T06:00:26.551Z,18.63
2019-02-12T06:02:57.821Z,17.53
2019-02-12T06:05:30.565Z,18.77
2019-02-12T06:08:01.907Z,24.50
2019-02-12T06:10:33.101Z,33.80
2019-02-12T06:13:04.427Z,22.90
2019-02-12T06:15:35.667Z,20.70
2019-02-12T06:18:06.977Z,23.87
2019-02-12T06:20:38.308Z,23.03
2019-02-12T06:23:09.585Z,20.07
2019-02-12T06:25:40.881Z,20.53
2019-02-12T06:28:12.201Z,23.77
2019-02-12T06:30:44.061Z,23.03
2019-02-12T06:33:15.569Z,22.87
2019-02-12T06:35:46.871Z,19.77
2019-02-12T06:38:18.162Z,19.00
2019-02-12T06:40:49.683Z,19.47
2019-02-12T06:43:20.984Z,23.50
2019-02-12T06:45:52.651Z,28.07
2019-02-12T06:48:23.819Z,20.13
2019-02-12T06:50:55.142Z,19.53
2019-02-12T06:53:26.436Z,16.93
2019-02-12T06:55:57.793Z,23.03
2019-02-12T06:58:29.082Z,18.93
2019-02-12T07:01:02.787Z,24.73
2019-02-12T07:04:04.667Z,25.33
2019-02-12T07:07:57.132Z,20.57
2019-02-12T07:10:35.634Z,18.23
2019-02-12T07:14:01.709Z,20.63
2019-02-12T07:17:28.810Z,15.43
2019-02-12T07:21:21.373Z,19.23
2019-02-12T07:24:49.346Z,15.37
2019-02-12T07:28:28.738Z,21.23
2019-02-12T07:31:53.515Z,19.60
2019-02-12T07:35:14.703Z,19.27
2019-02-12T07:38:57.590Z,22.37
2019-02-12T07:42:42.615Z,17.70
2019-02-12T07:46:15.882Z,30.87
2019-02-12T07:49:23.940Z,19.20
2019-02-12T07:52:50.838Z,20.27
2019-02-12T07:56:03.061Z,30.97
2019-02-12T07:59:33.145Z,21.13
2019-02-12T08:02:54.041Z,25.23
2019-02-12T08:05:52.874Z,25.27
2019-02-12T08:09:22.842Z,30.50
2019-02-12T08:12:47.444Z,20.70
2019-02-12T08:15:53.378Z,18.03
2019-02-12T08:19:05.831Z,27.67
2019-02-12T08:22:17.128Z,17.23
2019-02-12T08:25:37.794Z,16.73
2019-02-12T08:29:19.755Z,21.50
2019-02-12T08:32:39.253Z,21.93
2019-02-12T08:35:57.206Z,20.90
2019-02-12T08:39:10.248Z,23.20
2019-02-12T08:42:27.726Z,26.10
2019-02-12T08:45:46.953Z,27.20
2019-02-12T08:49:02.078Z,21.77
2019-02-12T08:52:03.083Z,19.00
2019-02-12T08:55:36.734Z,23.00
2019-02-12T08:59:09.386Z,20.00
2019-02-12T09:02:01.970Z,24.77
2019-02-12T09:05:22.225Z,16.90
2019-02-12T09:08:15.092Z,26.30
2019-02-12T09:12:22.693Z,20.73
2019-02-12T09:15:44.785Z,19.83
2019-02-12T09:19:07.871Z,17.47
2019-02-12T09:22:14.024Z,18.03
2019-02-12T09:25:52.126Z,29.43
2019-02-12T09:29:31.352Z,15.87
2019-02-12T09:32:52.445Z,18.07
2019-02-12T09:36:22.308Z,17.10
2019-02-12T09:39:26.988Z,18.13
2019-02-12T09:42:54.812Z,18.60
2019-02-12T09:46:05.168Z,15.83
2019-02-12T09:49:27.271Z,16.30
2019-02-12T09:52:57.443Z,17.67
2019-02-12T09:55:47.524Z,13.50
2019-02-12T09:58:49.666Z,19.83
2019-02-12T10:02:17.527Z,14.97
2019-02-12T10:05:27.400Z,13.93
2019-02-12T10:09:09.282Z,15.00
2019-02-12T10:12:20.632Z,19.77
2019-02-12T10:15:50.974Z,24.73
2019-02-12T10:19:03.340Z,13.50
2019-02-12T10:22:08.539Z,11.10
2019-02-12T10:25:18.340Z,23.53
2019-02-12T10:28:25.743Z,17.33
2019-02-12T10:31:41.957Z,16.53
2019-02-12T10:34:13.810Z,13.70
2019-02-12T10:36:45.222Z,21.00
2019-02-12T10:39:17.490Z,14.43
2019-02-12T10:41:48.821Z,11.37
2019-02-12T10:44:20.341Z,11.60
2019-02-12T10:46:51.754Z,22.57
2019-02-12T10:49:23.076Z,14.33
2019-02-12T10:51:54.434Z,19.43
2019-02-12T10:54:28.040Z,10.20
2019-02-12T10:57:01.848Z,17.90
2019-02-12T10:59:33.168Z,26.57
2019-02-12T11:02:04.450Z,13.57
2019-02-12T11:04:35.850Z,14.00
2019-02-12T11:07:07.135Z,7.93
2019-02-12T11:09:38.492Z,17.77
2019-02-12T11:12:09.738Z,11.93
2019-02-12T11:14:40.965Z,12.80
2019-02-12T11:17:12.223Z,12.03
2019-02-12T11:19:43.477Z,12.20
2019-02-12T11:22:14.829Z,10.50
2019-02-12T11:24:46.111Z,13.43
2019-02-12T11:27:17.482Z,12.37
2019-02-12T11:29:48.765Z,12.07
2019-02-12T11:32:20.024Z,9.70
2019-02-12T11:34:51.328Z,14.60
2019-02-12T11:37:22.626Z,14.70
2019-02-12T11:39:53.873Z,9.20
2019-02-12T11:42:25.532Z,11.03
2019-02-12T11:44:56.770Z,13.07
2019-02-12T11:47:28.027Z,19.90
2019-02-12T11:49:59.331Z,9.87
2019-02-12T11:52:30.679Z,11.40
2019-02-12T11:55:01.969Z,10.97
2019-02-12T11:57:33.212Z,11.10
2019-02-12T12:00:05.792Z,10.27
2019-02-12T12:02:41.877Z,15.33
2019-02-12T12:05:11.363Z,12.47
2019-02-12T12:07:42.525Z,13.70
2019-02-12T12:10:14.059Z,17.97
2019-02-12T12:12:45.327Z,12.07
2019-02-12T12:15:16.935Z,20.93
2019-02-12T12:17:48.156Z,15.53
2019-02-12T12:20:19.456Z,12.97
2019-02-12T12:22:50.773Z,12.53
2019-02-12T12:25:22.073Z,10.30
2019-02-12T12:27:53.419Z,9.70
2019-02-12T12:30:24.688Z,25.07
2019-02-12T12:32:56.594Z,10.13
2019-02-12T12:35:27.959Z,18.17
2019-02-12T12:37:59.219Z,13.37
2019-02-12T12:40:30.485Z,17.23
2019-02-12T12:43:01.769Z,21.50
2019-02-12T12:45:33.057Z,14.57
2019-02-12T12:48:04.521Z,14.60
2019-02-12T12:50:35.802Z,11.60
2019-02-12T12:53:06.999Z,16.33
2019-02-12T12:55:38.337Z,15.60
2019-02-12T12:58:09.624Z,11.93
2019-02-12T13:00:40.899Z,13.30
2019-02-12T13:03:13.508Z,13.13
2019-02-12T13:05:44.933Z,16.60
2019-02-12T13:08:16.299Z,16.63
2019-02-12T13:10:47.564Z,13.80
2019-02-12T13:13:18.827Z,16.13
2019-02-12T13:15:50.078Z,18.80
2019-02-12T13:18:21.505Z,14.33
2019-02-12T13:20:52.740Z,12.27
2019-02-12T13:23:24.128Z,18.20
2019-02-12T13:25:55.532Z,16.13
2019-02-12T13:28:26.768Z,27.10
2019-02-12T13:30:58.097Z,15.47
2019-02-12T13:33:30.598Z,14.60
2019-02-12T13:36:02.152Z,18.10
2019-02-12T13:38:34.245Z,23.97
2019-02-12T13:41:05.545Z,21.07
2019-02-12T13:43:36.796Z,15.30
2019-02-12T13:46:08.149Z,9.57
2019-02-12T13:48:39.530Z,13.53
2019-02-12T13:51:10.753Z,12.60
2019-02-12T13:53:42.003Z,15.80
2019-02-12T13:56:13.302Z,14.30
2019-02-12T13:58:44.610Z,22.70
2019-02-12T14:01:15.855Z,13.63
2019-02-12T14:03:47.396Z,13.80
2019-02-12T14:06:18.665Z,12.50
2019-02-12T14:08:49.999Z,10.63
2019-02-12T14:11:21.346Z,10.80
2019-02-12T14:13:52.685Z,15.10
2019-02-12T14:16:23.935Z,10.77
2019-02-12T14:18:55.296Z,14.33
2019-02-12T14:21:26.594Z,14.53
2019-02-12T14:23:58.070Z,14.37
2019-02-12T14:26:29.429Z,16.53
2019-02-12T14:29:00.753Z,17.07
2019-02-12T14:31:32.036Z,14.33
2019-02-12T14:34:03.327Z,14.83
2019-02-12T14:36:34.624Z,12.50
2019-02-12T14:39:06.809Z,13.57
2019-02-12T14:41:38.087Z,15.20
2019-02-12T14:44:09.403Z,16.10
2019-02-12T14:46:40.800Z,14.03
2019-02-12T14:49:12.122Z,20.00
2019-02-12T14:51:43.512Z,12.13
2019-02-12T14:54:14.876Z,16.17
2019-02-12T14:56:46.133Z,17.90
2019-02-12T14:59:17.281Z,17.60
2019-02-12T15:01:48.730Z,18.83
2019-02-12T15:04:20.688Z,19.63
2019-02-12T15:06:52.038Z,15.67
2019-02-12T15:09:23.530Z,16.70
2019-02-12T15:11:54.900Z,14.83
2019-02-12T15:14:29.310Z,18.43
2019-02-12T15:17:00.704Z,18.27
2019-02-12T15:19:31.989Z,21.47
2019-02-12T15:22:03.322Z,13.53
2019-02-12T15:24:34.526Z,16.30
2019-02-12T15:27:06.113Z,25.17
2019-02-12T15:29:37.483Z,14.03
2019-02-12T15:32:08.878Z,15.30
2019-02-12T15:34:40.366Z,14.10
2019-02-12T15:37:11.664Z,21.43
2019-02-12T15:39:43.338Z,18.13
2019-02-12T15:42:14.694Z,19.20
2019-02-12T15:44:46.035Z,20.10
2019-02-12T15:47:17.345Z,13.23
2019-02-12T15:49:48.579Z,17.53
2019-02-12T15:52:19.884Z,19.20
2019-02-12T15:54:51.244Z,13.57
2019-02-12T15:57:24.859Z,13.43
2019-02-12T15:59:56.227Z,20.13
2019-02-12T16:02:27.723Z,23.40
2019-02-12T16:04:58.936Z,26.37
2019-02-12T16:07:30.337Z,15.70
2019-02-12T16:10:02.040Z,23.83
2019-02-12T16:12:33.326Z,20.00
2019-02-12T16:15:04.682Z,21.73
2019-02-12T16:17:37.375Z,24.43
2019-02-12T16:20:10.167Z,20.80
2019-02-12T16:22:41.387Z,18.67
2019-02-12T16:25:25.831Z,23.70
2019-02-12T16:27:57.196Z,23.10
2019-02-12T16:30:28.522Z,19.53
2019-02-12T16:32:59.842Z,24.50
2019-02-12T16:35:31.102Z,45.40
2019-02-12T16:38:14.377Z,19.67
2019-02-12T16:40:45.651Z,22.57
2019-02-12T16:43:17.060Z,18.60
2019-02-12T16:45:58.113Z,21.80
2019-02-12T16:48:29.408Z,19.00
2019-02-12T16:51:00.646Z,18.33
2019-02-12T16:53:32.109Z,26.13
2019-02-12T16:56:08.301Z,20.67
2019-02-12T16:58:36.371Z,26.30
2019-02-12T17:01:07.653Z,21.47
2019-02-12T17:03:38.946Z,19.77
2019-02-12T17:06:11.835Z,22.93
2019-02-12T17:08:43.144Z,22.17
2019-02-12T17:11:14.392Z,26.00
2019-02-12T17:13:45.722Z,24.97
2019-02-12T17:16:17.000Z,20.13
2019-02-12T17:18:48.263Z,20.30
2019-02-12T17:21:19.559Z,27.17
2019-02-12T17:23:50.836Z,31.20
2019-02-12T17:26:22.123Z,23.47
2019-02-12T17:28:53.474Z,24.00
2019-02-12T17:31:24.691Z,23.53
2019-02-12T17:33:55.980Z,26.83
2019-02-12T17:36:27.299Z,21.23
2019-02-12T17:38:58.647Z,24.43
2019-02-12T17:41:30.086Z,21.93
2019-02-12T17:44:01.275Z,20.83
2019-02-12T17:46:32.591Z,32.77
2019-02-12T17:49:03.876Z,27.03
2019-02-12T17:51:35.246Z,27.87
2019-02-12T17:54:06.511Z,24.13
2019-02-12T17:56:37.812Z,23.83
2019-02-12T17:59:08.976Z,27.20
2019-02-12T18:01:40.570Z,22.83
2019-02-12T18:04:11.926Z,22.93
2019-02-12T18:06:43.491Z,24.97
2019-02-12T18:09:14.837Z,26.37
2019-02-12T18:11:46.179Z,24.80
2019-02-12T18:14:17.536Z,25.40
2019-02-12T18:16:48.858Z,31.93
2019-02-12T18:19:20.255Z,26.13
2019-02-12T18:21:51.489Z,25.57
2019-02-12T18:24:22.851Z,24.90
2019-02-12T18:26:54.238Z,28.47
2019-02-12T18:29:25.616Z,24.53
2019-02-12T18:31:56.933Z,29.90
2019-02-12T18:34:28.455Z,35.23
2019-02-12T18:36:59.877Z,21.50
2019-02-12T18:39:42.963Z,18.80
2019-02-12T18:42:14.517Z,24.30
2019-02-12T18:44:45.785Z,30.70
2019-02-12T18:47:17.030Z,29.00
2019-02-12T18:49:48.354Z,25.20
2019-02-12T18:52:19.698Z,28.20
2019-02-12T18:54:50.950Z,31.60
2019-02-12T18:57:24.667Z,28.97
2019-02-12T18:59:55.912Z,32.97
2019-02-12T19:02:27.911Z,23.43
2019-02-12T19:04:59.198Z,28.27
2019-02-12T19:07:30.650Z,25.00
2019-02-12T19:10:01.942Z,33.20
2019-02-12T19:12:33.305Z,29.50
2019-02-12T19:15:05.657Z,30.93
2019-02-12T19:17:37.099Z,29.50
2019-02-12T19:20:10.725Z,23.03
2019-02-12T19:22:42.016Z,28.90
2019-02-12T19:25:13.510Z,32.30
2019-02-12T19:27:44.782Z,30.53
2019-02-12T19:30:16.782Z,27.20
2019-02-12T19:32:48.043Z,26.07
2019-02-12T19:35:19.373Z,28.37
2019-02-12T19:37:50.633Z,27.00
2019-02-12T19:40:21.993Z,27.70
2019-02-12T19:42:53.289Z,23.60
2019-02-12T19:45:24.589Z,27.80
2019-02-12T19:47:55.972Z,33.47
2019-02-12T19:50:27.297Z,31.40
2019-02-12T19:52:58.654Z,38.27
2019-02-12T19:55:30.040Z,34.53
2019-02-12T19:58:01.497Z,34.17
2019-02-12T20:00:32.869Z,29.50
2019-02-12T20:03:04.213Z,33.93
2019-02-12T20:05:35.418Z,36.53
2019-02-12T20:08:06.707Z,31.20
2019-02-12T20:10:38.020Z,33.17
2019-02-12T20:13:09.415Z,35.47
2019-02-12T20:15:40.732Z,35.77
2019-02-12T20:18:12.149Z,35.53
2019-02-12T20:20:43.438Z,35.73
2019-02-12T20:23:14.793Z,30.50
2019-02-12T20:25:46.101Z,28.30
2019-02-12T20:28:17.383Z,32.60
2019-02-12T20:30:48.776Z,30.67
2019-02-12T20:33:20.100Z,32.17
2019-02-12T20:35:51.364Z,32.10
2019-02-12T20:38:22.738Z,28.50
2019-02-12T20:40:54.233Z,36.93
2019-02-12T20:43:25.521Z,26.80
2019-02-12T20:45:56.832Z,29.90
2019-02-12T20:48:28.190Z,34.20
2019-02-12T20:50:59.505Z,41.63
2019-02-12T20:53:30.780Z,30.60
2019-02-12T20:56:02.054Z,33.93
2019-02-12T20:58:33.349Z,30.33
2019-02-12T21:01:04.717Z,33.00
2019-02-12T21:03:36.104Z,38.03
2019-02-12T21:06:11.688Z,36.03
2019-02-12T21:08:44.024Z,34.90
2019-02-12T21:11:15.576Z,35.30
2019-02-12T21:13:46.856Z,28.00
2019-02-12T21:16:18.199Z,32.67
2019-02-12T21:18:49.741Z,34.20
2019-02-12T21:21:21.058Z,30.17
2019-02-12T21:23:52.373Z,26.07
2019-02-12T21:26:23.737Z,28.10
2019-02-12T21:28:55.027Z,25.77
2019-02-12T21:31:26.315Z,27.80
2019-02-12T21:33:57.662Z,25.40
2019-02-12T21:36:29.426Z,29.57
2019-02-12T21:39:00.770Z,28.67
2019-02-12T21:41:32.115Z,25.43
2019-02-12T21:44:03.533Z,25.03
2019-02-12T21:46:34.902Z,33.80
2019-02-12T21:49:06.192Z,22.97
2019-02-12T21:51:41.135Z,27.07
2019-02-12T21:54:12.554Z,23.97
2019-02-12T21:56:43.863Z,23.10
2019-02-12T21:59:15.177Z,26.37
2019-02-12T22:01:46.450Z,23.37
2019-02-12T22:04:17.821Z,26.27
2019-02-12T22:06:49.142Z,23.97
2019-02-12T22:09:20.423Z,22.17
2019-02-12T22:11:51.790Z,24.60
2019-02-12T22:14:23.047Z,26.57
2019-02-12T22:16:54.406Z,28.83
2019-02-12T22:19:28.548Z,25.43
2019-02-12T22:21:59.922Z,25.43
2019-02-12T22:24:31.156Z,25.67
2019-02-12T22:27:02.478Z,26.83
2019-02-12T22:29:33.726Z,30.33
2019-02-12T22:32:04.994Z,29.70
2019-02-12T22:34:36.282Z,31.97
2019-02-12T22:37:07.610Z,25.00
2019-02-12T22:39:38.983Z,33.40
2019-02-12T22:42:10.322Z,30.93
2019-02-12T22:44:41.656Z,28.00
2019-02-12T22:47:12.917Z,25.10
2019-02-12T22:49:44.346Z,28.77
2019-02-12T22:52:15.612Z,27.37
2019-02-12T22:54:49.273Z,30.60
2019-02-12T22:57:20.509Z,25.87
2019-02-12T22:59:51.876Z,34.33
2019-02-12T23:02:23.036Z,27.53
2019-02-12T23:04:54.323Z,27.70
2019-02-12T23:07:25.710Z,27.53
2019-02-12T23:09:56.949Z,31.23
2019-02-12T23:12:32.673Z,25.13
2019-02-12T23:15:24.385Z,27.53
2019-02-12T23:18:01.090Z,23.50
2019-02-12T23:20:40.270Z,22.87
2019-02-12T23:23:23.599Z,23.33
2019-02-12T23:25:59.747Z,26.30
2019-02-12T23:28:39.706Z,25.10
2019-02-12T23:31:14.586Z,29.70
2019-02-12T23:34:06.584Z,28.00
2019-02-12T23:36:50.808Z,27.43
2019-02-12T23:39:36.196Z,22.73
2019-02-12T23:42:18.906Z,26.90
2019-02-12T23:44:50.493Z,36.87
2019-02-12T23:47:21.751Z,25.47
2019-02-12T23:49:53.096Z,29.33
2019-02-12T23:52:31.824Z,33.30
2019-02-12T23:55:03.082Z,27.67
2019-02-12T23:57:34.403Z,28.23
